X  Chiuso Dati meteorologici dell'aviazione (METAR)     LIML Linate
Temperatura
10°C Temperatura
10°C Punto di rugiada
100% Umidità



Vento
2 KM/H
1 MPH
0 M/S
1 KTS



Calmo
Nord
Condizioni attuali

Chiaro Pioggerella, Nebbia Chiaro Pioggerella, Nebbia
Pressione 1024.92 (hPa) - 30.27 (inHg)
Visibilità 0.7 (miglio) - 1.2 (km)
Aeroporto
Aeroporto-code LIML

Posizione: Linate
Distanza: 100 (km)

Metar:
LIML 171150Z VRB01KT 1200 R36/1200N -DZ BR BKN003 BKN010 10/10 Q1025 NOSIG

Ore: 02-17-2020 12:50 CET